Time;durP1;ratioP1;P1;durP2;ratioP2;P2;SDS_P1;SDS_P2;PMS_P1;PMS_P2;Temp;Humidity;BMP_temperature;BMP_pressure;BME280_temperature;BME280_humidity;BME280_pressure;Samples;Min_cycle;Max_cycle;Signal;HPM_P1;HPM_P2
2023/10/04 00:00:30;;;;;;;;;;;;;;;19.80;61.86;97654.23;590364;240;64713;-68
2023/10/04 00:02:58;;;;;;;;;;;;;;;19.79;61.94;97651.84;590511;240;62887;-68
2023/10/04 00:05:25;;;;;;;;;;;;;;;19.79;62.11;97651.84;590494;240;62572;-68
2023/10/04 00:07:55;;;;;;;;;;;;;;;19.79;62.48;97649.17;590429;240;64704;-68
2023/10/04 00:10:23;;;;;;;;;;;;;;;19.78;62.34;97648.37;590440;240;63299;-68
2023/10/04 00:12:52;;;;;;;;;;;;;;;19.79;61.83;97646.50;590458;240;65221;-68
2023/10/04 00:15:20;;;;;;;;;;;;;;;19.79;62.06;97641.97;590466;240;62582;-68
2023/10/04 00:17:48;;;;;;;;;;;;;;;19.79;61.81;97635.84;590419;240;65421;-68
2023/10/04 00:20:17;;;;;;;;;;;;;;;19.79;62.28;97630.50;590440;240;65052;-68
2023/10/04 00:22:46;;;;;;;;;;;;;;;19.79;61.65;97630.50;590413;240;64753;-68
2023/10/04 00:25:16;;;;;;;;;;;;;;;19.78;61.79;97623.53;590441;240;65416;-68
2023/10/04 00:27:44;;;;;;;;;;;;;;;19.77;62.47;97630.73;590437;240;65234;-68
2023/10/04 00:30:12;;;;;;;;;;;;;;;19.78;61.91;97628.88;590463;240;62698;-68
2023/10/04 00:32:40;;;;;;;;;;;;;;;19.79;62.84;97630.50;590294;240;63218;-68
2023/10/04 00:35:20;;;;;;;;;;;;;;;19.78;62.05;97628.88;590479;240;62745;-68
2023/10/04 00:37:55;;;;;;;;;;;;;;;19.77;61.52;97625.41;590447;240;62378;-68
2023/10/04 00:40:21;;;;;;;;;;;;;;;19.78;61.79;97615.53;590335;240;65645;-68
2023/10/04 00:42:50;;;;;;;;;;;;;;;19.78;62.26;97623.53;590495;240;65738;-66
2023/10/04 00:45:19;;;;;;;;;;;;;;;19.78;62.58;97620.87;590468;240;62630;-66
2023/10/04 00:47:50;;;;;;;;;;;;;;;19.77;62.86;97613.94;590448;240;65438;-66
2023/10/04 00:50:26;;;;;;;;;;;;;;;19.76;62.59;97610.47;590484;240;65187;-66
2023/10/04 00:52:54;;;;;;;;;;;;;;;19.76;62.72;97613.13;590415;240;64620;-65
2023/10/04 00:55:22;;;;;;;;;;;;;;;19.77;62.82;97611.27;590037;240;65635;-65
2023/10/04 00:57:55;;;;;;;;;;;;;;;19.76;63.00;97610.47;590496;240;65203;-68
2023/10/04 01:00:20;;;;;;;;;;;;;;;19.76;63.19;97609.66;590328;240;62442;-67
2023/10/04 01:02:48;;;;;;;;;;;;;;;19.76;63.10;97605.13;590462;240;65141;-68
2023/10/04 01:05:18;;;;;;;;;;;;;;;19.75;62.82;97603.50;590449;240;65386;-67
2023/10/04 01:07:47;;;;;;;;;;;;;;;19.76;63.00;97604.33;590429;240;62750;-67
2023/10/04 01:10:16;;;;;;;;;;;;;;;19.76;63.35;97599.00;590524;240;64467;-65
2023/10/04 01:12:46;;;;;;;;;;;;;;;19.74;62.86;97608.03;590407;240;65058;-65
2023/10/04 01:15:31;;;;;;;;;;;;;;;19.76;62.53;97612.33;590468;240;62711;-68
2023/10/04 01:18:00;;;;;;;;;;;;;;;19.76;62.96;97612.33;590454;240;65476;-68
2023/10/04 01:20:29;;;;;;;;;;;;;;;19.74;63.09;97600.03;590475;240;63184;-68
2023/10/04 01:23:05;;;;;;;;;;;;;;;19.74;63.32;97597.37;590438;240;64587;-68
2023/10/04 01:25:35;;;;;;;;;;;;;;;19.74;63.40;97602.70;590521;240;63371;-65
2023/10/04 01:28:07;;;;;;;;;;;;;;;19.74;63.14;97597.37;590262;240;62968;-65
2023/10/04 01:30:33;;;;;;;;;;;;;;;19.76;63.30;97599.00;590340;240;62368;-66
2023/10/04 01:33:03;;;;;;;;;;;;;;;19.73;63.46;97598.44;590390;240;65577;-66
2023/10/04 01:35:30;;;;;;;;;;;;;;;19.73;63.30;97601.09;590454;240;65124;-66
2023/10/04 01:37:57;;;;;;;;;;;;;;;19.73;63.22;97595.77;590416;240;62385;-66
2023/10/04 01:40:26;;;;;;;;;;;;;;;19.73;63.42;97594.97;590514;240;62963;-66
2023/10/04 01:42:57;;;;;;;;;;;;;;;19.74;63.37;97593.91;590442;240;65889;-66
2023/10/04 01:45:25;;;;;;;;;;;;;;;19.72;63.05;97596.83;590447;240;63552;-66
2023/10/04 01:47:52;;;;;;;;;;;;;;;19.73;63.58;97594.97;590462;240;65560;-68
2023/10/04 01:50:20;;;;;;;;;;;;;;;19.73;63.28;97600.30;590462;240;64920;-68
2023/10/04 01:52:48;;;;;;;;;;;;;;;19.72;63.34;97599.50;590488;240;62616;-68
2023/10/04 01:55:21;;;;;;;;;;;;;;;19.73;63.09;97601.09;590479;240;65605;-68
2023/10/04 01:57:45;;;;;;;;;;;;;;;19.73;63.31;97603.77;590214;240;63164;-68
2023/10/04 02:00:18;;;;;;;;;;;;;;;19.72;62.46;97599.50;590453;240;64897;-68
2023/10/04 02:02:46;;;;;;;;;;;;;;;19.74;62.76;97604.56;590428;240;65410;-67
2023/10/04 02:05:20;;;;;;;;;;;;;;;19.73;62.86;97601.09;590423;240;65286;-68
2023/10/04 02:07:44;;;;;;;;;;;;;;;19.73;62.60;97600.30;590262;240;64752;-68
2023/10/04 02:10:13;;;;;;;;;;;;;;;19.72;62.57;97607.50;590416;240;62775;-68
2023/10/04 02:12:43;;;;;;;;;;;;;;;19.72;63.14;97604.83;590447;240;62854;-68
2023/10/04 02:15:15;;;;;;;;;;;;;;;19.72;63.25;97604.83;590443;240;62565;-67
2023/10/04 02:17:40;;;;;;;;;;;;;;;19.72;63.26;97604.83;583326;240;64391;-67
2023/10/04 02:20:14;;;;;;;;;;;;;;;19.72;63.08;97604.00;590496;240;65517;-68
2023/10/04 02:22:38;;;;;;;;;;;;;;;19.72;63.73;97606.67;590144;240;64919;-67
2023/10/04 02:25:13;;;;;;;;;;;;;;;19.72;63.71;97606.67;590474;240;65774;-65
2023/10/04 02:27:35;;;;;;;;;;;;;;;19.71;63.70;97603.20;590083;240;65228;-65
2023/10/04 02:30:13;;;;;;;;;;;;;;;19.71;63.17;97603.20;590413;240;65703;-65
2023/10/04 02:32:33;;;;;;;;;;;;;;;19.72;63.12;97601.34;588447;240;65852;-66
2023/10/04 02:35:01;;;;;;;;;;;;;;;19.72;63.98;97607.50;588512;241;63969;-66
2023/10/04 02:37:31;;;;;;;;;;;;;;;19.71;63.43;97602.40;588550;241;64860;-66
2023/10/04 02:39:59;;;;;;;;;;;;;;;19.71;63.09;97605.87;588515;241;65571;-68
2023/10/04 02:42:28;;;;;;;;;;;;;;;19.71;62.92;97602.40;588533;241;62889;-68
2023/10/04 02:44:56;;;;;;;;;;;;;;;19.71;63.44;97613.06;588532;241;64827;-68
2023/10/04 02:47:26;;;;;;;;;;;;;;;19.71;63.04;97608.53;588561;241;64190;-68
2023/10/04 02:49:53;;;;;;;;;;;;;;;19.70;62.98;97612.27;588542;241;62864;-68
2023/10/04 02:52:21;;;;;;;;;;;;;;;19.70;63.00;97612.27;588504;241;64907;-68
2023/10/04 02:54:49;;;;;;;;;;;;;;;19.71;63.25;97618.41;588481;241;65418;-68
2023/10/04 02:57:16;;;;;;;;;;;;;;;19.71;63.51;97613.87;588542;241;62937;-68
2023/10/04 02:59:44;;;;;;;;;;;;;;;19.70;63.44;97614.94;588571;241;63486;-68
2023/10/04 03:02:12;;;;;;;;;;;;;;;19.70;63.87;97606.93;588523;241;65403;-68
2023/10/04 03:04:41;;;;;;;;;;;;;;;19.70;63.25;97608.80;588567;241;65284;-68
2023/10/04 03:07:09;;;;;;;;;;;;;;;19.70;63.62;97609.60;588510;241;64863;-68
2023/10/04 03:09:37;;;;;;;;;;;;;;;19.69;62.74;97615.97;588513;241;66060;-66
2023/10/04 03:12:05;;;;;;;;;;;;;;;19.68;63.26;97614.37;588557;241;63515;-66
2023/10/04 03:14:33;;;;;;;;;;;;;;;19.70;63.50;97614.13;588532;241;64862;-66
2023/10/04 03:17:08;;;;;;;;;;;;;;;19.69;63.23;97612.50;588532;241;62994;-68
2023/10/04 03:19:30;;;;;;;;;;;;;;;19.69;63.69;97609.83;588279;241;65471;-68
2023/10/04 03:21:58;;;;;;;;;;;;;;;19.69;63.55;97605.30;588485;241;64937;-68
2023/10/04 03:24:25;;;;;;;;;;;;;;;19.69;63.38;97607.97;588585;241;63304;-68
2023/10/04 03:26:53;;;;;;;;;;;;;;;19.68;62.31;97606.37;588561;241;65204;-66
2023/10/04 03:29:21;;;;;;;;;;;;;;;19.68;63.79;97609.03;588559;241;64738;-66
2023/10/04 03:31:49;;;;;;;;;;;;;;;19.68;64.28;97605.56;589506;240;65140;-66
2023/10/04 03:34:17;;;;;;;;;;;;;;;19.68;64.10;97611.70;590417;240;65778;-66
2023/10/04 03:36:46;;;;;;;;;;;;;;;19.67;63.70;97610.09;590423;240;62618;-66
2023/10/04 03:39:16;;;;;;;;;;;;;;;19.67;63.92;97602.09;590477;240;65071;-66
2023/10/04 03:41:47;;;;;;;;;;;;;;;19.69;63.79;97615.97;590457;240;63889;-66
2023/10/04 03:44:14;;;;;;;;;;;;;;;19.67;64.01;97615.43;590421;240;65328;-66
2023/10/04 03:46:43;;;;;;;;;;;;;;;19.67;64.54;97609.27;590418;240;66329;-66
2023/10/04 03:49:12;;;;;;;;;;;;;;;19.67;64.99;97610.09;590450;240;65301;-66
2023/10/04 03:51:40;;;;;;;;;;;;;;;19.67;64.53;97611.94;590505;240;64758;-66
2023/10/04 03:54:09;;;;;;;;;;;;;;;19.67;64.33;97623.43;590446;240;62926;-65
2023/10/04 03:56:41;;;;;;;;;;;;;;;19.66;64.48;97619.13;590418;240;43732;-65
2023/10/04 03:59:08;;;;;;;;;;;;;;;19.66;64.60;97619.13;590471;240;64838;-65
2023/10/04 04:01:37;;;;;;;;;;;;;;;19.66;64.40;97613.00;590412;240;62515;-65
2023/10/04 04:04:06;;;;;;;;;;;;;;;19.66;64.45;97621.80;590481;240;64843;-65
2023/10/04 04:06:34;;;;;;;;;;;;;;;19.66;64.78;97621.00;590527;240;64769;-65
2023/10/04 04:09:09;;;;;;;;;;;;;;;19.64;64.73;97618.56;590499;240;65599;-65
2023/10/04 04:11:31;;;;;;;;;;;;;;;19.65;64.42;97622.83;590211;240;64898;-65
2023/10/04 04:13:59;;;;;;;;;;;;;;;19.66;65.19;97621.00;590446;240;62830;-67
2023/10/04 04:16:27;;;;;;;;;;;;;;;19.66;64.29;97624.47;590481;240;65142;-67
2023/10/04 04:18:55;;;;;;;;;;;;;;;19.64;62.05;97631.06;590533;240;62850;-68
2023/10/04 04:21:29;;;;;;;;;;;;;;;19.65;63.87;97630.03;590457;240;64919;-67
2023/10/04 04:23:52;;;;;;;;;;;;;;;19.64;64.53;97631.89;590235;240;66309;-67
2023/10/04 04:26:23;;;;;;;;;;;;;;;19.63;63.32;97632.93;590415;240;66091;-67
2023/10/04 04:28:51;;;;;;;;;;;;;;;19.65;63.91;97619.36;590453;240;64817;-68
2023/10/04 04:31:20;;;;;;;;;;;;;;;19.64;63.29;97626.56;583308;241;66638;-67
2023/10/04 04:33:48;;;;;;;;;;;;;;;19.63;64.44;97618.80;588615;241;62685;-68
2023/10/04 04:36:36;;;;;;;;;;;;;;;19.64;64.51;97621.23;588566;241;46736;-68
2023/10/04 04:38:50;;;;;;;;;;;;;;;19.63;64.60;97622.27;587160;241;66610;-67
2023/10/04 04:41:24;;;;;;;;;;;;;;;19.63;64.06;97618.80;588658;241;63209;-67
2023/10/04 04:43:49;;;;;;;;;;;;;;;19.63;64.33;97624.13;588403;241;62621;-67
2023/10/04 04:46:17;;;;;;;;;;;;;;;19.63;65.21;97627.59;588663;241;65244;-68
2023/10/04 04:48:54;;;;;;;;;;;;;;;19.62;64.10;97628.66;588606;241;63085;-67
2023/10/04 04:51:17;;;;;;;;;;;;;;;19.62;64.70;97626.00;588240;241;44378;-67
2023/10/04 04:53:53;;;;;;;;;;;;;;;19.63;64.29;97626.80;588347;241;47116;-67
2023/10/04 04:56:24;;;;;;;;;;;;;;;19.62;64.55;97626.00;588582;241;42309;-67
2023/10/04 04:58:56;;;;;;;;;;;;;;;19.61;64.58;97624.36;588660;241;44894;-67
2023/10/04 05:01:23;;;;;;;;;;;;;;;19.61;64.55;97619.03;588608;241;62924;-67
2023/10/04 05:03:51;;;;;;;;;;;;;;;19.62;64.72;97619.86;588567;241;65679;-67
2023/10/04 05:06:25;;;;;;;;;;;;;;;19.61;63.35;97616.37;588510;241;62639;-67
2023/10/04 05:08:57;;;;;;;;;;;;;;;19.61;64.18;97627.03;588527;241;64862;-68
2023/10/04 05:11:24;;;;;;;;;;;;;;;19.61;64.39;97621.70;588497;241;67065;-67
2023/10/04 05:13:55;;;;;;;;;;;;;;;19.62;63.61;97633.19;588522;241;62488;-67
2023/10/04 05:16:24;;;;;;;;;;;;;;;19.62;64.42;97633.19;588425;241;74886;-67
2023/10/04 05:18:53;;;;;;;;;;;;;;;19.62;64.62;97635.86;588476;241;66878;-67
2023/10/04 05:21:21;;;;;;;;;;;;;;;19.61;64.23;97640.36;588492;241;64576;-68
2023/10/04 05:23:48;;;;;;;;;;;;;;;19.61;64.31;97635.03;588498;241;67327;-68
2023/10/04 05:26:16;;;;;;;;;;;;;;;19.61;64.68;97635.03;588495;241;65599;-68
2023/10/04 05:28:43;;;;;;;;;;;;;;;19.61;64.10;97634.23;588544;241;64552;-68
2023/10/04 05:31:11;;;;;;;;;;;;;;;19.61;64.15;97634.23;588849;240;67362;-68
2023/10/04 05:33:39;;;;;;;;;;;;;;;19.61;64.78;97634.23;590306;240;67036;-68
2023/10/04 05:36:06;;;;;;;;;;;;;;;19.61;62.73;97642.23;590307;240;64619;-68
2023/10/04 05:38:35;;;;;;;;;;;;;;;19.61;64.83;97639.56;590358;240;67113;-68
2023/10/04 05:41:03;;;;;;;;;;;;;;;19.60;64.02;97628.09;590328;240;65126;-67
2023/10/04 05:43:34;;;;;;;;;;;;;;;19.61;64.59;97634.23;590284;240;64560;-65
2023/10/04 05:46:00;;;;;;;;;;;;;;;19.60;62.71;97633.42;590257;240;67340;-65
2023/10/04 05:48:27;;;;;;;;;;;;;;;19.60;63.47;97635.30;590298;240;66794;-65
2023/10/04 05:50:58;;;;;;;;;;;;;;;19.60;63.47;97632.63;590348;240;64906;-65
2023/10/04 05:53:26;;;;;;;;;;;;;;;19.61;64.22;97637.70;590364;240;64837;-65
2023/10/04 05:55:54;;;;;;;;;;;;;;;19.60;62.68;97645.95;590285;240;67046;-65
2023/10/04 05:58:21;;;;;;;;;;;;;;;19.60;64.14;97644.09;590329;240;64575;-65
2023/10/04 06:00:52;;;;;;;;;;;;;;;19.60;64.29;97638.77;590313;240;64354;-65
2023/10/04 06:03:19;;;;;;;;;;;;;;;19.60;63.93;97644.09;590243;240;66923;-64
2023/10/04 06:05:47;;;;;;;;;;;;;;;19.60;64.35;97635.30;590333;240;64667;-65
2023/10/04 06:08:18;;;;;;;;;;;;;;;19.59;64.11;97644.33;590305;240;67415;-65
2023/10/04 06:10:45;;;;;;;;;;;;;;;19.58;63.23;97648.86;585606;240;68079;-67
2023/10/04 06:13:13;;;;;;;;;;;;;;;19.60;64.20;97653.95;588399;240;64896;-64
2023/10/04 06:15:41;;;;;;;;;;;;;;;19.58;63.72;97642.72;583872;240;67252;-65
2023/10/04 06:18:11;;;;;;;;;;;;;;;19.59;63.83;97644.33;583120;243;65046;-64
2023/10/04 06:20:40;;;;;;;;;;;;;;;19.59;62.35;97644.33;583028;243;62429;-64
2023/10/04 06:23:09;;;;;;;;;;;;;;;19.61;64.67;97642.23;577731;245;67128;-64
2023/10/04 06:25:41;;;;;;;;;;;;;;;19.60;60.10;97644.09;577610;245;64496;-64
2023/10/04 06:28:12;;;;;;;;;;;;;;;19.60;60.70;97638.77;577324;245;62519;-64
2023/10/04 06:30:40;;;;;;;;;;;;;;;19.60;61.92;97638.77;578026;243;64939;-64
2023/10/04 06:33:08;;;;;;;;;;;;;;;19.61;62.32;97645.70;587350;241;67256;-65
2023/10/04 06:35:37;;;;;;;;;;;;;;;19.62;62.55;97641.19;587320;241;63255;-66
2023/10/04 06:38:06;;;;;;;;;;;;;;;19.60;62.66;97641.42;587311;241;67221;-65
2023/10/04 06:40:34;;;;;;;;;;;;;;;19.62;62.48;97641.19;587312;241;66858;-64
2023/10/04 06:43:08;;;;;;;;;;;;;;;19.61;62.55;97632.36;587314;241;62652;-64
2023/10/04 06:45:33;;;;;;;;;;;;;;;19.61;62.45;97636.89;587147;241;64909;-63
2023/10/04 06:48:01;;;;;;;;;;;;;;;19.61;61.95;97642.23;587225;241;65026;-63
2023/10/04 06:50:32;;;;;;;;;;;;;;;19.62;64.19;97642.00;588063;240;62412;-63
2023/10/04 06:53:01;;;;;;;;;;;;;;;19.60;62.83;97638.77;586912;241;64468;-64
2023/10/04 06:55:30;;;;;;;;;;;;;;;19.61;62.83;97637.70;587258;241;65090;-64
2023/10/04 06:57:58;;;;;;;;;;;;;;;19.62;62.86;97634.00;586904;241;64724;-65
2023/10/04 07:00:30;;;;;;;;;;;;;;;19.62;62.93;97638.53;587308;241;67031;-65
2023/10/04 07:03:01;;;;;;;;;;;;;;;19.62;62.88;97636.66;586849;241;64851;-65
2023/10/04 07:05:36;;;;;;;;;;;;;;;19.63;63.43;97638.27;587071;241;64798;-65
2023/10/04 07:08:05;;;;;;;;;;;;;;;19.64;63.81;97634.56;580277;244;67148;-64
2023/10/04 07:10:33;;;;;;;;;;;;;;;19.64;62.97;97639.06;587318;241;66993;-63
2023/10/04 07:13:02;;;;;;;;;;;;;;;19.64;63.01;97639.90;586960;241;62730;-63
2023/10/04 07:15:39;;;;;;;;;;;;;;;19.65;62.95;97638.03;587280;241;67015;-64
2023/10/04 07:18:10;;;;;;;;;;;;;;;19.64;62.84;97634.56;586809;241;64917;-64
2023/10/04 07:20:38;;;;;;;;;;;;;;;19.64;62.85;97639.90;587289;241;64877;-63
2023/10/04 07:23:07;;;;;;;;;;;;;;;19.65;62.67;97636.16;586889;241;67334;-63
2023/10/04 07:25:36;;;;;;;;;;;;;;;19.66;63.13;97642.33;587246;241;67086;-66
2023/10/04 07:28:04;;;;;;;;;;;;;;;19.66;63.42;97635.13;586970;241;64779;-63
2023/10/04 07:30:38;;;;;;;;;;;;;;;19.65;62.81;97625.50;587189;241;67239;-67
2023/10/04 07:33:03;;;;;;;;;;;;;;;19.66;63.49;97631.66;584703;242;64786;-69
2023/10/04 07:35:31;;;;;;;;;;;;;;;19.66;63.51;97621.00;581181;244;62569;-67
2023/10/04 07:37:59;;;;;;;;;;;;;;;19.66;62.58;97634.33;584817;242;67173;-69
2023/10/04 07:40:27;;;;;;;;;;;;;;;19.67;63.64;97631.43;581243;244;64968;-67
2023/10/04 07:42:55;;;;;;;;;;;;;;;19.66;63.64;97621.80;584891;242;64947;-63
2023/10/04 07:45:23;;;;;;;;;;;;;;;19.67;63.33;97628.77;581140;244;67120;-65
2023/10/04 07:47:51;;;;;;;;;;;;;;;19.69;63.02;97628.50;584885;242;67002;-65
2023/10/04 07:50:25;;;;;;;;;;;;;;;19.68;63.19;97625.03;581142;244;66022;-63
2023/10/04 07:52:50;;;;;;;;;;;;;;;19.69;59.61;97626.63;584633;242;67090;-63
2023/10/04 07:55:22;;;;;;;;;;;;;;;19.72;60.78;97631.50;581207;244;67232;-65
2023/10/04 07:57:50;;;;;;;;;;;;;;;19.72;60.63;97628.00;584819;242;65023;-62
2023/10/04 08:00:18;;;;;;;;;;;;;;;19.71;62.49;97621.87;581175;244;67232;-63
2023/10/04 08:02:49;;;;;;;;;;;;;;;19.72;63.66;97630.67;584901;242;66320;-63
2023/10/04 08:05:20;;;;;;;;;;;;;;;19.71;63.37;97621.87;584777;242;64697;-62
2023/10/04 08:07:48;;;;;;;;;;;;;;;19.71;63.32;97629.87;581242;244;66949;-65
2023/10/04 08:10:16;;;;;;;;;;;;;;;19.71;63.42;97619.20;578450;244;64638;-62
2023/10/04 08:12:45;;;;;;;;;;;;;;;19.71;63.48;97618.41;584832;242;64597;-62
2023/10/04 08:15:13;;;;;;;;;;;;;;;19.71;64.75;97621.87;581189;244;66925;-62
2023/10/04 08:17:48;;;;;;;;;;;;;;;19.70;64.70;97617.59;584845;242;66754;-63
2023/10/04 08:20:16;;;;;;;;;;;;;;;19.70;64.84;97612.27;580849;244;64890;-63
2023/10/04 08:22:41;;;;;;;;;;;;;;;19.71;64.85;97621.06;584782;242;66852;-65
2023/10/04 08:25:10;;;;;;;;;;;;;;;19.70;65.87;97620.27;581211;244;67043;-65
2023/10/04 08:27:39;;;;;;;;;;;;;;;19.70;65.02;97614.94;584832;242;64898;-64
2023/10/04 08:30:07;;;;;;;;;;;;;;;19.71;65.62;97615.73;581143;244;66933;-65
2023/10/04 08:32:35;;;;;;;;;;;;;;;19.71;65.44;97613.87;584849;242;67019;-65
2023/10/04 08:35:03;;;;;;;;;;;;;;;19.70;64.98;97612.27;581172;244;62517;-64
2023/10/04 08:37:31;;;;;;;;;;;;;;;19.71;65.22;97619.20;584915;242;67299;-64
2023/10/04 08:39:59;;;;;;;;;;;;;;;19.70;65.49;97612.27;581126;244;67084;-64
2023/10/04 08:42:28;;;;;;;;;;;;;;;19.71;65.40;97613.87;584858;242;64403;-64
2023/10/04 08:44:55;;;;;;;;;;;;;;;19.78;60.24;97607.53;581174;244;64697;-65
2023/10/04 08:47:24;;;;;;;;;;;;;;;19.80;63.32;97610.77;584878;242;66876;-67
2023/10/04 08:49:53;;;;;;;;;;;;;;;19.77;62.75;97612.06;581208;244;64612;-65
2023/10/04 08:52:22;;;;;;;;;;;;;;;19.76;63.10;97610.47;578325;245;63739;-66
2023/10/04 08:54:52;;;;;;;;;;;;;;;19.76;63.28;97610.47;581155;244;64734;-66
2023/10/04 08:57:20;;;;;;;;;;;;;;;19.76;63.19;97607.00;578310;245;64602;-66
2023/10/04 08:59:55;;;;;;;;;;;;;;;19.76;63.38;97599.00;581205;244;67032;-67
2023/10/04 09:02:20;;;;;;;;;;;;;;;19.76;64.63;97604.33;584603;242;66888;-66
2023/10/04 09:04:49;;;;;;;;;;;;;;;19.76;63.95;97601.66;584909;242;64767;-66
2023/10/04 09:07:23;;;;;;;;;;;;;;;19.75;63.91;97603.50;581217;244;67256;-66
2023/10/04 09:09:47;;;;;;;;;;;;;;;19.74;62.31;97601.90;584608;242;66871;-66
2023/10/04 09:12:15;;;;;;;;;;;;;;;19.74;59.42;97602.70;581178;244;62804;-66
2023/10/04 09:14:45;;;;;;;;;;;;;;;19.76;59.08;97599.00;584929;242;68138;-66
2023/10/04 09:17:17;;;;;;;;;;;;;;;19.77;58.91;97598.73;581191;244;67486;-66
2023/10/04 09:19:47;;;;;;;;;;;;;;;19.78;58.81;97596.87;584923;242;62571;-64
2023/10/04 09:22:17;;;;;;;;;;;;;;;19.79;58.72;97596.62;584694;242;67211;-65
2023/10/04 09:24:57;;;;;;;;;;;;;;;19.80;58.79;97597.44;581043;244;70564;-66
2023/10/04 09:27:25;;;;;;;;;;;;;;;19.80;58.96;97598.23;584890;242;62524;-66
2023/10/04 09:29:57;;;;;;;;;;;;;;;19.81;60.24;97596.40;581190;244;68021;-66
2023/10/04 09:32:29;;;;;;;;;;;;;;;19.81;61.73;97591.86;584076;242;67011;-66
2023/10/04 09:34:57;;;;;;;;;;;;;;;19.81;61.95;97596.40;583194;243;62564;-66
2023/10/04 09:37:25;;;;;;;;;;;;;;;19.80;62.94;97590.23;584262;243;67211;-67
2023/10/04 09:40:10;;;;;;;;;;;;;;;19.79;63.01;97583.30;583910;243;67050;-67
2023/10/04 09:42:56;;;;;;;;;;;;;;;19.79;63.12;97587.83;583979;243;62812;-67
2023/10/04 09:45:24;;;;;;;;;;;;;;;19.78;63.95;97587.03;584253;243;64848;-67
2023/10/04 09:47:53;;;;;;;;;;;;;;;19.79;64.31;97590.50;583978;243;66997;-67
2023/10/04 09:50:23;;;;;;;;;;;;;;;19.78;64.34;97589.70;584308;243;64766;-67
2023/10/04 09:52:51;;;;;;;;;;;;;;;19.77;64.30;97584.59;577442;245;67260;-67
2023/10/04 09:55:22;;;;;;;;;;;;;;;19.77;64.25;97585.40;584322;243;64679;-67
2023/10/04 09:57:48;;;;;;;;;;;;;;;19.77;63.89;97584.59;583834;243;63376;-66
2023/10/04 10:00:19;;;;;;;;;;;;;;;19.78;64.27;97588.87;584284;243;65047;-67
2023/10/04 10:02:52;;;;;;;;;;;;;;;19.78;63.95;97586.20;583950;243;64860;-67
2023/10/04 10:05:27;;;;;;;;;;;;;;;19.76;63.06;97591.80;584081;243;62525;-67
2023/10/04 10:08:02;;;;;;;;;;;;;;;19.78;64.83;97581.70;583881;243;67409;-67
2023/10/04 10:10:26;;;;;;;;;;;;;;;19.78;65.05;97588.87;584029;243;66937;-67
2023/10/04 10:12:54;;;;;;;;;;;;;;;19.78;65.63;97580.86;583863;243;64726;-67
2023/10/04 10:15:21;;;;;;;;;;;;;;;19.77;66.03;97585.40;584308;243;67235;-68
2023/10/04 10:17:49;;;;;;;;;;;;;;;19.78;66.28;97583.53;579610;242;64733;-67
2023/10/04 10:20:16;;;;;;;;;;;;;;;19.77;66.34;97580.06;579115;242;63364;-67
2023/10/04 10:22:46;;;;;;;;;;;;;;;19.78;66.32;97572.86;578486;245;67366;-67
2023/10/04 10:25:16;;;;;;;;;;;;;;;19.77;65.89;97568.59;575908;245;66940;-67
2023/10/04 10:27:44;;;;;;;;;;;;;;;19.77;65.59;97558.73;578493;245;62682;-67
2023/10/04 10:30:12;;;;;;;;;;;;;;;19.77;65.79;97563.27;578490;245;67072;-68
2023/10/04 10:32:50;;;;;;;;;;;;;;;19.78;65.83;97548.86;584788;242;67003;-68
2023/10/04 10:35:19;;;;;;;;;;;;;;;19.77;65.41;97558.73;579307;245;62685;-68
2023/10/04 10:37:47;;;;;;;;;;;;;;;19.78;65.07;97556.86;582514;243;67067;-69
2023/10/04 10:40:29;;;;;;;;;;;;;;;19.78;64.13;97559.53;579308;245;65147;-66
2023/10/04 10:43:10;;;;;;;;;;;;;;;19.78;64.12;97560.36;570831;245;64848;-67
2023/10/04 10:45:37;;;;;;;;;;;;;;;19.78;63.30;97557.69;587469;239;67085;-67
2023/10/04 10:48:08;;;;;;;;;;;;;;;19.79;62.37;97542.48;586980;239;66877;-67
2023/10/04 10:50:40;;;;;;;;;;;;;;;19.80;62.59;97557.42;588774;239;64756;-67
2023/10/04 10:53:12;;;;;;;;;;;;;;;19.81;62.63;97545.72;589126;239;65112;-67
2023/10/04 10:55:40;;;;;;;;;;;;;;;19.81;61.71;97537.72;586234;239;67112;-66
2023/10/04 10:58:08;;;;;;;;;;;;;;;19.81;62.42;97543.05;591166;239;64716;-66
2023/10/04 11:00:39;;;;;;;;;;;;;;;19.81;61.81;97538.52;589906;239;66619;-66
2023/10/04 11:03:09;;;;;;;;;;;;;;;19.82;63.94;97539.32;591984;239;67013;-66
2023/10/04 11:05:36;;;;;;;;;;;;;;;19.81;65.79;97527.05;589305;239;62726;-67
2023/10/04 11:08:08;;;;;;;;;;;;;;;19.80;66.25;97536.89;586009;239;67711;-66
2023/10/04 11:10:38;;;;;;;;;;;;;;;19.79;66.24;97535.29;587543;239;64733;-68
2023/10/04 11:13:08;;;;;;;;;;;;;;;19.78;66.23;97533.69;592013;239;62228;-68
2023/10/04 11:15:36;;;;;;;;;;;;;;;19.79;65.94;97539.83;591926;239;68497;-68
2023/10/04 11:18:06;;;;;;;;;;;;;;;19.78;66.22;97539.02;591874;239;67012;-67
2023/10/04 11:20:36;;;;;;;;;;;;;;;19.78;66.11;97538.19;591999;239;64625;-68
2023/10/04 11:23:02;;;;;;;;;;;;;;;19.78;66.32;97546.20;591960;239;64851;-67
2023/10/04 11:25:31;;;;;;;;;;;;;;;19.78;66.33;97530.19;588015;239;67174;-68
2023/10/04 11:27:59;;;;;;;;;;;;;;;19.78;66.25;97527.53;590095;239;62589;-67
2023/10/04 11:30:33;;;;;;;;;;;;;;;19.77;65.80;97531.27;591917;239;67272;-67
2023/10/04 11:32:58;;;;;;;;;;;;;;;19.78;66.25;97535.53;584571;241;67098;-67
2023/10/04 11:35:27;;;;;;;;;;;;;;;19.78;66.14;97527.53;582730;241;62497;-66
2023/10/04 11:37:54;;;;;;;;;;;;;;;19.77;66.00;97525.92;587973;241;64757;-66
2023/10/04 11:40:23;;;;;;;;;;;;;;;19.78;66.19;97530.19;588760;241;67339;-66
2023/10/04 11:42:52;;;;;;;;;;;;;;;19.77;65.71;97545.39;582313;240;62487;-66
2023/10/04 11:45:21;;;;;;;;;;;;;;;19.78;65.87;97533.69;581878;243;67363;-66
2023/10/04 11:48:02;;;;;;;;;;;;;;;19.77;65.61;97528.59;585625;241;66793;-65
2023/10/04 11:50:42;;;;;;;;;;;;;;;19.78;65.69;97528.36;581752;243;64843;-65
2023/10/04 11:53:13;;;;;;;;;;;;;;;19.77;65.59;97524.06;581861;243;64770;-64
2023/10/04 11:55:41;;;;;;;;;;;;;;;19.77;65.33;97516.06;581302;243;65274;-66
2023/10/04 11:58:10;;;;;;;;;;;;;;;19.78;65.23;97519.53;582104;243;64834;-66
2023/10/04 12:00:38;;;;;;;;;;;;;;;19.76;64.72;97514.45;582067;243;66794;-66
2023/10/04 12:03:06;;;;;;;;;;;;;;;19.78;64.81;97516.86;582100;243;64876;-67
2023/10/04 12:05:33;;;;;;;;;;;;;;;19.79;63.18;97513.16;582189;243;64679;-67
2023/10/04 12:08:01;;;;;;;;;;;;;;;19.79;62.61;97510.48;582006;243;67274;-67
2023/10/04 12:10:28;;;;;;;;;;;;;;;19.80;63.23;97506.75;582161;243;66607;-67
2023/10/04 12:12:57;;;;;;;;;;;;;;;19.81;64.03;97506.52;582096;243;62509;-67
2023/10/04 12:15:25;;;;;;;;;;;;;;;19.81;63.46;97508.38;582044;243;66560;-66
2023/10/04 12:17:53;;;;;;;;;;;;;;;19.81;62.32;97511.05;582098;243;66746;-66
2023/10/04 12:20:21;;;;;;;;;;;;;;;19.82;63.05;97501.98;582083;243;62500;-66
2023/10/04 12:22:49;;;;;;;;;;;;;;;19.82;62.62;97499.31;582088;243;67060;-66
2023/10/04 12:25:17;;;;;;;;;;;;;;;19.82;62.87;97496.64;582154;243;66800;-66
2023/10/04 12:27:47;;;;;;;;;;;;;;;19.83;63.18;97487.58;582099;240;64609;-67
2023/10/04 12:30:17;;;;;;;;;;;;;;;19.82;63.29;97484.11;577384;245;66912;-66
2023/10/04 12:32:43;;;;;;;;;;;;;;;19.83;63.65;97483.05;586596;241;64735;-65
2023/10/04 12:35:13;;;;;;;;;;;;;;;19.82;64.09;97481.45;594221;239;62607;-66
2023/10/04 12:37:40;;;;;;;;;;;;;;;19.82;63.37;97470.77;594234;239;67156;-67
2023/10/04 12:40:16;;;;;;;;;;;;;;;19.83;62.41;97466.24;590365;239;64801;-67
2023/10/04 12:42:37;;;;;;;;;;;;;;;19.82;62.14;97460.11;587770;241;64667;-67
2023/10/04 12:45:05;;;;;;;;;;;;;;;19.84;62.60;97462.54;588094;241;67226;-67
2023/10/04 12:47:33;;;;;;;;;;;;;;;19.84;63.28;97468.67;588085;241;66861;-67
2023/10/04 12:50:00;;;;;;;;;;;;;;;19.85;63.43;97458.80;587988;241;62560;-66
2023/10/04 12:52:30;;;;;;;;;;;;;;;19.83;63.62;97453.70;588060;241;67382;-66
2023/10/04 12:54:57;;;;;;;;;;;;;;;19.84;63.48;97462.54;588078;241;68243;-67
2023/10/04 12:57:25;;;;;;;;;;;;;;;19.84;63.10;97462.54;588067;241;62482;-67